createdAt,value
2023-01-18T00:00:47.865Z,98589.41
2023-01-18T00:03:14.564Z,98587.09
2023-01-18T00:05:42.120Z,98580.97
2023-01-18T00:08:10.962Z,98583.63
2023-01-18T00:10:38.147Z,98573.44
2023-01-18T00:13:05.336Z,98584.81
2023-01-18T00:15:32.692Z,98576.94
2023-01-18T00:17:59.033Z,98589.31
2023-01-18T00:20:29.925Z,98591.03
2023-01-18T00:22:58.982Z,98585.69
2023-01-18T00:25:25.839Z,98589.31
2023-01-18T00:27:53.705Z,98586.53
2023-01-18T00:30:23.860Z,98588.84
2023-01-18T00:32:54.689Z,98596.03
2023-01-18T00:35:22.130Z,98596.03
2023-01-18T00:37:49.592Z,98595.81
2023-01-18T00:40:15.943Z,98599.16
2023-01-18T00:43:01.045Z,98597.09
2023-01-18T00:45:27.971Z,98606.47
2023-01-18T00:47:54.420Z,98610.16
2023-01-18T00:50:22.326Z,98606.94
2023-01-18T00:52:50.062Z,98604.84
2023-01-18T00:55:17.045Z,98601.03
2023-01-18T00:57:43.667Z,98608.81
2023-01-18T01:00:15.099Z,98603.09
2023-01-18T01:02:42.143Z,98608.44
2023-01-18T01:05:39.103Z,98608.56
2023-01-18T01:08:08.732Z,98608.22
2023-01-18T01:10:35.434Z,98608.22
2023-01-18T01:13:20.721Z,98612.63
2023-01-18T01:16:05.524Z,98613.91
2023-01-18T01:18:50.280Z,98612.63
2023-01-18T01:21:35.027Z,98614.50
2023-01-18T01:24:19.835Z,98610.09
2023-01-18T01:26:46.189Z,98617.50
2023-01-18T01:29:12.513Z,98618.53
2023-01-18T01:31:39.308Z,98628.53
2023-01-18T01:34:05.742Z,98626.81
2023-01-18T01:36:32.240Z,98627.81
2023-01-18T01:38:58.653Z,98636.03
2023-01-18T01:41:28.229Z,98627.00
2023-01-18T01:44:14.449Z,98633.88
2023-01-18T01:46:52.607Z,98638.59
2023-01-18T01:49:32.022Z,98633.91
2023-01-18T01:52:06.097Z,98641.00
2023-01-18T01:54:38.757Z,98645.41
2023-01-18T01:57:14.201Z,98644.22
2023-01-18T01:59:53.179Z,98643.91
2023-01-18T02:02:19.885Z,98643.44
2023-01-18T02:04:46.435Z,98653.63
2023-01-18T02:07:13.082Z,98641.56
2023-01-18T02:09:40.146Z,98661.13
2023-01-18T02:12:06.599Z,98667.97
2023-01-18T02:14:33.328Z,98669.44
2023-01-18T02:17:15.410Z,98669.59
2023-01-18T02:20:20.115Z,98675.00
2023-01-18T02:23:23.305Z,98680.84
2023-01-18T02:26:17.798Z,98679.09
2023-01-18T02:29:10.006Z,98673.66
2023-01-18T02:31:46.721Z,98681.88
2023-01-18T02:34:25.815Z,98677.72
2023-01-18T02:37:19.875Z,98678.44
2023-01-18T02:39:52.381Z,98675.19
2023-01-18T02:42:40.272Z,98678.03
2023-01-18T02:45:54.063Z,98675.47
2023-01-18T02:48:22.865Z,98686.56
2023-01-18T02:50:50.072Z,98693.97
2023-01-18T02:53:16.905Z,98691.53
2023-01-18T02:55:59.362Z,98700.59
2023-01-18T02:58:33.518Z,98696.53
2023-01-18T03:01:09.125Z,98706.72
2023-01-18T03:03:36.046Z,98707.91
2023-01-18T03:06:05.479Z,98696.16
2023-01-18T03:08:48.459Z,98701.31
2023-01-18T03:11:31.219Z,98706.44
2023-01-18T03:14:16.055Z,98702.19
2023-01-18T03:17:08.644Z,98695.34
2023-01-18T03:20:03.819Z,98704.56
2023-01-18T03:22:55.410Z,98700.31
2023-01-18T03:25:31.246Z,98704.13
2023-01-18T03:28:22.244Z,98704.13
2023-01-18T03:31:09.541Z,98708.22
2023-01-18T03:33:47.422Z,98712.88
2023-01-18T03:36:33.866Z,98704.16
2023-01-18T03:39:10.514Z,98719.53
2023-01-18T03:41:42.577Z,98720.06
2023-01-18T03:44:19.012Z,98723.03
2023-01-18T03:46:45.575Z,98719.41
2023-01-18T03:49:12.787Z,98727.53
2023-01-18T03:52:20.745Z,98730.78
2023-01-18T03:55:00.933Z,98730.88
2023-01-18T03:57:43.578Z,98731.75
2023-01-18T04:00:11.297Z,98735.38
2023-01-18T04:02:37.940Z,98741.91
2023-01-18T04:05:05.704Z,98744.09
2023-01-18T04:07:32.958Z,98747.59
2023-01-18T04:10:00.334Z,98754.63
2023-01-18T04:12:27.507Z,98762.75
2023-01-18T04:14:53.899Z,98759.06
2023-01-18T04:17:20.656Z,98759.28
2023-01-18T04:19:47.032Z,98762.75
2023-01-18T04:22:14.015Z,98763.34
2023-01-18T04:24:40.356Z,98770.94
2023-01-18T04:27:06.808Z,98776.53
2023-01-18T04:29:33.145Z,98781.47
2023-01-18T04:31:59.822Z,98779.59
2023-01-18T04:34:26.183Z,98777.13
2023-01-18T04:36:53.661Z,98777.75
2023-01-18T04:39:20.744Z,98783.47
2023-01-18T04:41:47.047Z,98782.44
2023-01-18T04:44:13.665Z,98787.09
2023-01-18T04:46:40.201Z,98785.09
2023-01-18T04:49:10.952Z,98789.25
2023-01-18T04:51:38.813Z,98787.59
2023-01-18T04:54:05.389Z,98798.63
2023-01-18T04:56:31.786Z,98788.38
2023-01-18T04:58:58.165Z,98794.50
2023-01-18T05:01:25.060Z,98798.34
2023-01-18T05:03:52.875Z,98805.53
2023-01-18T05:06:22.096Z,98807.09
2023-01-18T05:08:48.798Z,98806.41
2023-01-18T05:11:17.812Z,98806.84
2023-01-18T05:13:45.527Z,98815.50
2023-01-18T05:16:17.868Z,98819.56
2023-01-18T05:18:45.016Z,98820.75
2023-01-18T05:21:11.644Z,98834.28
2023-01-18T05:23:40.206Z,98836.34
2023-01-18T05:26:16.187Z,98838.19
2023-01-18T05:28:42.939Z,98841.03
2023-01-18T05:31:09.657Z,98842.72
2023-01-18T05:33:36.332Z,98843.81
2023-01-18T05:36:02.772Z,98855.06
2023-01-18T05:38:47.633Z,98859.34
2023-01-18T05:41:14.044Z,98860.56
2023-01-18T05:43:40.508Z,98860.56
2023-01-18T05:46:06.961Z,98862.44
2023-01-18T05:48:33.339Z,98872.66
2023-01-18T05:50:59.710Z,98877.81
2023-01-18T05:53:26.447Z,98885.81
2023-01-18T05:56:00.789Z,98884.66
2023-01-18T05:58:27.815Z,98891.44
2023-01-18T06:00:55.799Z,98888.97
2023-01-18T06:03:23.611Z,98902.41
2023-01-18T06:05:51.398Z,98899.41
2023-01-18T06:08:18.579Z,98902.47
2023-01-18T06:10:51.545Z,98909.44
2023-01-18T06:13:17.911Z,98911.41
2023-01-18T06:15:44.565Z,98918.78
2023-01-18T06:18:10.978Z,98925.44
2023-01-18T06:20:37.333Z,98932.03
2023-01-18T06:23:03.878Z,98932.03
2023-01-18T06:25:30.279Z,98930.78
2023-01-18T06:27:56.598Z,98940.34
2023-01-18T06:30:22.988Z,98937.22
2023-01-18T06:32:50.424Z,98939.34
2023-01-18T06:35:16.925Z,98945.69
2023-01-18T06:37:45.524Z,98943.19
2023-01-18T06:40:12.964Z,98950.59
2023-01-18T06:42:40.166Z,98956.59
2023-01-18T06:45:07.170Z,98958.22
2023-01-18T06:47:34.837Z,98959.25
2023-01-18T06:50:01.164Z,98965.97
2023-01-18T06:52:27.546Z,98965.78
2023-01-18T06:54:54.092Z,98973.34
2023-01-18T06:57:20.523Z,98976.88
2023-01-18T06:59:46.870Z,98980.53
2023-01-18T07:02:14.920Z,98981.41
2023-01-18T07:04:44.211Z,98983.88
2023-01-18T07:07:11.431Z,98988.59
2023-01-18T07:09:38.213Z,98993.31
2023-01-18T07:12:04.797Z,98994.56
2023-01-18T07:14:31.183Z,98998.38
2023-01-18T07:16:57.823Z,98998.81
2023-01-18T07:19:24.233Z,98999.81
2023-01-18T07:21:53.569Z,99012.09
2023-01-18T07:24:20.507Z,99009.88
2023-01-18T07:26:46.884Z,99014.13
2023-01-18T07:29:13.317Z,99009.63
2023-01-18T07:31:40.535Z,99007.41
2023-01-18T07:34:07.215Z,99017.69
2023-01-18T07:36:34.207Z,99017.25
2023-01-18T07:39:03.061Z,99031.97
2023-01-18T07:41:30.988Z,99031.53
2023-01-18T07:43:57.755Z,99032.78
2023-01-18T07:46:26.005Z,99031.72
2023-01-18T07:48:52.656Z,99031.94
2023-01-18T07:51:21.592Z,99038.28
2023-01-18T07:53:48.705Z,99051.97
2023-01-18T07:56:17.716Z,99055.84
2023-01-18T07:58:45.239Z,99058.72
2023-01-18T08:01:15.238Z,99057.06
2023-01-18T08:03:43.300Z,99065.25
2023-01-18T08:06:10.270Z,99069.97
2023-01-18T08:08:37.078Z,99076.50
2023-01-18T08:11:06.005Z,99080.19
2023-01-18T08:13:32.679Z,99085.91
2023-01-18T08:16:01.360Z,99089.56
2023-01-18T08:18:28.444Z,99094.91
2023-01-18T08:20:55.358Z,99094.84
2023-01-18T08:23:22.607Z,99097.31
2023-01-18T08:25:49.566Z,99104.66
2023-01-18T08:28:16.124Z,99118.19
2023-01-18T08:30:45.650Z,99119.41
2023-01-18T08:33:12.551Z,99117.78
2023-01-18T08:35:45.192Z,99120.00
2023-01-18T08:38:13.526Z,99126.75
2023-01-18T08:40:40.252Z,99127.13
2023-01-18T08:43:07.093Z,99132.06
2023-01-18T08:45:37.415Z,99134.88
2023-01-18T08:48:06.150Z,99134.66
2023-01-18T08:50:33.787Z,99134.06
2023-01-18T08:53:01.116Z,99141.06
2023-01-18T08:55:29.572Z,99138.94
2023-01-18T08:57:57.748Z,99151.22
2023-01-18T09:00:28.621Z,99152.59
2023-01-18T09:02:55.487Z,99159.53
2023-01-18T09:05:22.550Z,99157.69
2023-01-18T09:07:50.958Z,99167.88
2023-01-18T09:10:17.463Z,99166.56
2023-01-18T09:12:43.892Z,99163.66
2023-01-18T09:15:10.685Z,99166.06
2023-01-18T09:17:37.083Z,99180.41
2023-01-18T09:20:07.544Z,99181.22
2023-01-18T09:22:34.080Z,99183.69
2023-01-18T09:25:00.428Z,99188.22
2023-01-18T09:27:26.776Z,99185.34
2023-01-18T09:29:53.172Z,99188.88
2023-01-18T09:32:20.117Z,99198.84
2023-01-18T09:34:50.510Z,99193.94
2023-01-18T09:37:19.081Z,99187.34
2023-01-18T09:39:51.871Z,99193.34
2023-01-18T09:42:22.624Z,99198.41
2023-01-18T09:44:55.669Z,99210.28
2023-01-18T09:47:34.484Z,99217.59
2023-01-18T09:50:13.124Z,99218.34
2023-01-18T09:52:54.970Z,99219.72
2023-01-18T09:55:41.858Z,99216.19
2023-01-18T09:58:28.829Z,99217.25
2023-01-18T10:01:02.605Z,99225.88
2023-01-18T10:03:34.880Z,99237.31
2023-01-18T10:06:11.024Z,99229.91
2023-01-18T10:08:49.738Z,99231.22
2023-01-18T10:11:47.993Z,99231.22
2023-01-18T10:14:48.930Z,99231.91
2023-01-18T10:17:23.864Z,99235.72
2023-01-18T10:19:50.878Z,99239.28
2023-01-18T10:22:20.477Z,99239.88
2023-01-18T10:24:53.199Z,99240.19
2023-01-18T10:28:04.603Z,99235.44
2023-01-18T10:30:44.290Z,99240.91
2023-01-18T10:33:23.031Z,99240.78
2023-01-18T10:35:56.990Z,99238.97
2023-01-18T10:38:26.817Z,99238.75
2023-01-18T10:41:00.537Z,99235.94
2023-01-18T10:43:29.995Z,99234.53
2023-01-18T10:45:56.512Z,99236.00
2023-01-18T10:48:32.062Z,99235.41
2023-01-18T10:51:05.713Z,99238.91
2023-01-18T10:53:35.187Z,99248.66
2023-01-18T10:56:07.562Z,99246.25
2023-01-18T10:58:45.351Z,99237.34
2023-01-18T11:01:35.076Z,99247.28
2023-01-18T11:04:08.113Z,99252.94
2023-01-18T11:06:50.217Z,99258.50
2023-01-18T11:10:11.135Z,99254.88
2023-01-18T11:12:47.852Z,99258.81
2023-01-18T11:15:14.288Z,99259.22
2023-01-18T11:17:50.360Z,99263.66
2023-01-18T11:20:21.737Z,99267.41
2023-01-18T11:23:03.649Z,99271.06
2023-01-18T11:25:37.598Z,99265.81
2023-01-18T11:28:07.428Z,99270.72
2023-01-18T11:30:34.706Z,99268.63
2023-01-18T11:33:01.323Z,99264.69
2023-01-18T11:35:33.895Z,99271.00
2023-01-18T11:38:02.778Z,99267.06
2023-01-18T11:40:32.251Z,99264.84
2023-01-18T11:43:03.681Z,99270.53
2023-01-18T11:45:40.280Z,99268.00
2023-01-18T11:48:13.064Z,99273.00
2023-01-18T11:50:48.613Z,99269.63
2023-01-18T11:53:27.092Z,99269.75
2023-01-18T11:56:06.538Z,99275.31
2023-01-18T11:58:35.318Z,99274.97
2023-01-18T12:01:10.558Z,99281.53
2023-01-18T12:03:52.049Z,99275.09
2023-01-18T12:06:56.448Z,99272.84
2023-01-18T12:10:00.354Z,99271.44
2023-01-18T12:13:00.668Z,99266.63
2023-01-18T12:15:51.963Z,99265.81
2023-01-18T12:18:38.145Z,99269.91
2023-01-18T12:21:11.818Z,99271.88
2023-01-18T12:23:47.183Z,99261.34
2023-01-18T12:26:25.343Z,99270.59
2023-01-18T12:29:09.977Z,99269.28
2023-01-18T12:31:49.431Z,99267.28
2023-01-18T12:34:22.076Z,99265.06
2023-01-18T12:37:01.661Z,99271.13
2023-01-18T12:39:37.361Z,99285.06
2023-01-18T12:42:09.914Z,99283.03
2023-01-18T12:44:57.910Z,99282.50
2023-01-18T12:47:34.937Z,99273.31
2023-01-18T12:50:12.639Z,99280.84
2023-01-18T12:52:51.045Z,99272.41
2023-01-18T12:55:25.779Z,99269.91
2023-01-18T12:57:56.353Z,99269.84
2023-01-18T13:00:36.154Z,99274.06
2023-01-18T13:03:09.939Z,99272.03
2023-01-18T13:05:52.381Z,99281.88
2023-01-18T13:08:40.244Z,99273.38
2023-01-18T13:11:12.928Z,99275.59
2023-01-18T13:13:41.793Z,99278.09
2023-01-18T13:16:29.577Z,99285.00
2023-01-18T13:19:07.081Z,99287.91
2023-01-18T13:21:43.924Z,99283.72
2023-01-18T13:24:29.601Z,99290.09
2023-01-18T13:27:10.959Z,99282.59
2023-01-18T13:29:39.084Z,99289.72
2023-01-18T13:32:35.267Z,99294.13
2023-01-18T13:35:19.499Z,99303.00
2023-01-18T13:37:50.892Z,99305.38
2023-01-18T13:40:27.628Z,99307.50
2023-01-18T13:42:54.050Z,99300.50
2023-01-18T13:45:23.522Z,99307.81
2023-01-18T13:48:42.305Z,99307.78
2023-01-18T13:51:09.246Z,99308.78
2023-01-18T13:53:50.091Z,99313.66
2023-01-18T13:56:37.443Z,99311.72
2023-01-18T13:59:12.804Z,99315.88
2023-01-18T14:01:45.653Z,99324.09
2023-01-18T14:04:24.022Z,99328.19
2023-01-18T14:06:51.454Z,99329.06
2023-01-18T14:09:28.206Z,99327.88
2023-01-18T14:11:56.878Z,99334.97
2023-01-18T14:14:28.181Z,99341.84
2023-01-18T14:17:17.089Z,99351.06
2023-01-18T14:19:52.178Z,99350.38
2023-01-18T14:22:37.187Z,99359.50
2023-01-18T14:25:41.846Z,99353.38
2023-01-18T14:28:13.494Z,99351.41
2023-01-18T14:30:44.830Z,99353.03
2023-01-18T14:33:11.160Z,99353.28
2023-01-18T14:35:37.660Z,99349.13
2023-01-18T14:38:18.867Z,99362.81
2023-01-18T14:40:52.568Z,99361.75
2023-01-18T14:43:29.137Z,99365.66
2023-01-18T14:46:02.287Z,99370.06
2023-01-18T14:48:31.224Z,99363.41
2023-01-18T14:50:59.203Z,99374.78
2023-01-18T14:53:35.665Z,99375.31
2023-01-18T14:56:14.064Z,99376.41
2023-01-18T14:58:51.706Z,99381.53
2023-01-18T15:01:37.087Z,99384.13
2023-01-18T15:04:06.502Z,99386.75
2023-01-18T15:06:45.221Z,99393.25
2023-01-18T15:09:12.907Z,99400.91
2023-01-18T15:11:42.130Z,99399.75
2023-01-18T15:14:15.593Z,99410.06
2023-01-18T15:16:42.707Z,99415.91
2023-01-18T15:19:17.606Z,99415.81
2023-01-18T15:21:45.993Z,99426.97
2023-01-18T15:24:22.640Z,99434.06
2023-01-18T15:26:57.081Z,99437.44
2023-01-18T15:29:32.749Z,99436.72
2023-01-18T15:32:05.328Z,99438.44
2023-01-18T15:34:36.072Z,99442.53
2023-01-18T15:37:12.223Z,99439.63
2023-01-18T15:40:08.296Z,99445.91
2023-01-18T15:42:39.567Z,99441.81
2023-01-18T15:45:17.650Z,99441.63
2023-01-18T15:47:50.044Z,99437.69
2023-01-18T15:50:22.173Z,99434.41
2023-01-18T15:53:02.022Z,99437.84
2023-01-18T15:55:53.309Z,99449.03
2023-01-18T15:58:25.819Z,99444.25
2023-01-18T16:01:01.081Z,99437.72
2023-01-18T16:03:40.049Z,99443.56
2023-01-18T16:06:12.920Z,99446.16
2023-01-18T16:09:12.128Z,99443.94
2023-01-18T16:11:51.884Z,99438.09
2023-01-18T16:14:28.613Z,99446.44
2023-01-18T16:16:57.379Z,99454.84
2023-01-18T16:19:43.577Z,99454.38
2023-01-18T16:22:28.093Z,99462.78
2023-01-18T16:24:57.576Z,99465.38
2023-01-18T16:27:27.181Z,99474.00
2023-01-18T16:29:59.718Z,99471.22
2023-01-18T16:32:29.009Z,99471.69
2023-01-18T16:34:59.865Z,99469.91
2023-01-18T16:37:26.588Z,99474.69
2023-01-18T16:39:55.238Z,99476.47
2023-01-18T16:42:29.659Z,99485.34
2023-01-18T16:45:03.933Z,99487.66
2023-01-18T16:47:30.297Z,99492.22
2023-01-18T16:49:56.672Z,99490.09
2023-01-18T16:52:23.236Z,99493.38
2023-01-18T16:54:49.673Z,99485.19
2023-01-18T16:57:21.817Z,99488.22
2023-01-18T16:59:48.997Z,99497.06
2023-01-18T17:02:15.865Z,99497.31
2023-01-18T17:04:42.790Z,99504.53
2023-01-18T17:07:10.140Z,99501.97
2023-01-18T17:09:48.029Z,99509.75
2023-01-18T17:12:15.587Z,99523.63
2023-01-18T17:14:42.097Z,99518.72
2023-01-18T17:17:09.626Z,99524.44
2023-01-18T17:19:37.586Z,99526.41
2023-01-18T17:22:04.423Z,99528.72
2023-01-18T17:24:30.874Z,99536.97
2023-01-18T17:26:57.524Z,99536.19
2023-01-18T17:29:25.190Z,99540.47
2023-01-18T17:31:53.115Z,99544.38
2023-01-18T17:34:28.190Z,99542.50
2023-01-18T17:36:57.071Z,99549.44
2023-01-18T17:39:31.724Z,99558.91
2023-01-18T17:42:12.046Z,99549.75
2023-01-18T17:44:38.853Z,99547.47
2023-01-18T17:47:05.437Z,99549.47
2023-01-18T17:49:32.214Z,99550.31
2023-01-18T17:51:58.572Z,99562.38
2023-01-18T17:54:25.231Z,99554.06
2023-01-18T17:56:53.097Z,99558.22
2023-01-18T17:59:19.824Z,99562.09
2023-01-18T18:01:46.404Z,99552.69
2023-01-18T18:04:12.950Z,99563.25
2023-01-18T18:06:46.161Z,99560.59
2023-01-18T18:09:19.839Z,99569.34
2023-01-18T18:11:46.287Z,99576.25
2023-01-18T18:14:12.646Z,99577.88
2023-01-18T18:16:43.600Z,99577.50
2023-01-18T18:19:14.399Z,99577.50
2023-01-18T18:21:42.125Z,99584.41
2023-01-18T18:24:08.561Z,99585.25
2023-01-18T18:26:35.203Z,99590.72
2023-01-18T18:29:01.596Z,99595.47
2023-01-18T18:31:29.685Z,99609.88
2023-01-18T18:33:56.130Z,99610.91
2023-01-18T18:36:22.829Z,99616.69
2023-01-18T18:38:49.157Z,99612.19
2023-01-18T18:41:15.575Z,99618.75
2023-01-18T18:43:41.914Z,99618.81
2023-01-18T18:46:08.363Z,99621.69
2023-01-18T18:48:34.849Z,99618.44
2023-01-18T18:51:01.154Z,99624.22
2023-01-18T18:53:37.512Z,99627.84
2023-01-18T18:56:10.254Z,99630.91
2023-01-18T18:58:37.920Z,99631.38
2023-01-18T19:01:05.484Z,99626.63
2023-01-18T19:03:32.827Z,99638.22
2023-01-18T19:05:59.249Z,99644.44
2023-01-18T19:08:25.721Z,99649.59
2023-01-18T19:10:52.175Z,99650.84
2023-01-18T19:13:19.149Z,99651.28
2023-01-18T19:15:46.835Z,99650.69
2023-01-18T19:18:14.362Z,99660.78
2023-01-18T19:20:41.002Z,99660.22
2023-01-18T19:23:09.028Z,99665.34
2023-01-18T19:25:37.897Z,99669.44
2023-01-18T19:28:04.501Z,99667.41
2023-01-18T19:30:31.600Z,99677.03
2023-01-18T19:33:00.124Z,99677.22
2023-01-18T19:35:26.983Z,99677.44
2023-01-18T19:37:53.568Z,99681.97
2023-01-18T19:40:20.885Z,99675.41
2023-01-18T19:42:54.356Z,99676.00
2023-01-18T19:45:27.806Z,99684.41
2023-01-18T19:47:57.575Z,99684.38
2023-01-18T19:50:24.507Z,99686.78
2023-01-18T19:52:50.880Z,99681.72
2023-01-18T19:55:17.208Z,99688.06
2023-01-18T19:57:43.680Z,99687.09
2023-01-18T20:00:10.794Z,99690.84
2023-01-18T20:02:41.194Z,99693.69
2023-01-18T20:05:08.447Z,99690.06
2023-01-18T20:07:37.245Z,99698.94
2023-01-18T20:10:03.816Z,99696.25
2023-01-18T20:12:31.924Z,99697.72
2023-01-18T20:14:58.515Z,99694.84
2023-01-18T20:17:24.977Z,99693.19
2023-01-18T20:19:54.029Z,99698.28
2023-01-18T20:22:21.546Z,99700.75
2023-01-18T20:24:47.951Z,99702.88
2023-01-18T20:27:16.609Z,99701.31
2023-01-18T20:29:43.710Z,99712.03
2023-01-18T20:32:16.170Z,99706.44
2023-01-18T20:34:47.295Z,99718.19
2023-01-18T20:37:15.322Z,99716.56
2023-01-18T20:39:41.923Z,99720.69
2023-01-18T20:42:08.664Z,99719.03
2023-01-18T20:44:35.888Z,99713.84
2023-01-18T20:47:02.578Z,99726.44
2023-01-18T20:49:44.026Z,99721.94
2023-01-18T20:52:10.788Z,99717.41
2023-01-18T20:54:37.624Z,99727.47
2023-01-18T20:57:06.377Z,99722.53
2023-01-18T20:59:33.030Z,99730.53
2023-01-18T21:01:59.592Z,99726.44
2023-01-18T21:04:26.171Z,99734.22
2023-01-18T21:06:52.558Z,99734.22
2023-01-18T21:09:18.934Z,99736.28
2023-01-18T21:11:45.530Z,99737.94
2023-01-18T21:14:12.584Z,99737.13
2023-01-18T21:16:39.165Z,99749.06
2023-01-18T21:19:05.530Z,99752.75
2023-01-18T21:21:32.079Z,99751.50
2023-01-18T21:23:59.974Z,99752.31
2023-01-18T21:26:26.481Z,99756.00
2023-01-18T21:28:53.088Z,99750.66
2023-01-18T21:31:19.753Z,99758.28
2023-01-18T21:33:46.291Z,99759.50
2023-01-18T21:36:15.498Z,99754.78
2023-01-18T21:38:41.924Z,99756.00
2023-01-18T21:41:27.488Z,99754.75
2023-01-18T21:44:12.797Z,99765.44
2023-01-18T21:46:44.497Z,99766.66
2023-01-18T21:49:42.962Z,99765.63
2023-01-18T21:52:36.102Z,99766.22
2023-01-18T21:55:02.483Z,99769.53
2023-01-18T21:57:28.802Z,99768.34
2023-01-18T21:59:55.291Z,99769.78
2023-01-18T22:02:22.409Z,99765.88
2023-01-18T22:04:59.013Z,99771.47
2023-01-18T22:07:30.152Z,99767.13
2023-01-18T22:10:05.963Z,99778.88
2023-01-18T22:12:35.071Z,99775.38
2023-01-18T22:15:02.887Z,99785.63
2023-01-18T22:17:29.758Z,99790.94
2023-01-18T22:19:56.393Z,99792.19
2023-01-18T22:22:22.822Z,99788.06
2023-01-18T22:24:49.152Z,99787.03
2023-01-18T22:27:15.469Z,99792.56
2023-01-18T22:29:41.859Z,99800.19
2023-01-18T22:32:08.186Z,99790.88
2023-01-18T22:34:34.624Z,99792.94
2023-01-18T22:37:01.134Z,99799.34
2023-01-18T22:39:27.464Z,99794.59
2023-01-18T22:41:53.834Z,99799.50
2023-01-18T22:44:23.329Z,99803.25
2023-01-18T22:46:49.879Z,99805.47
2023-01-18T22:49:16.322Z,99802.63
2023-01-18T22:51:43.433Z,99801.81
2023-01-18T22:54:09.914Z,99796.66
2023-01-18T22:56:36.419Z,99788.84
2023-01-18T22:59:02.815Z,99793.38
2023-01-18T23:01:31.986Z,99797.88
2023-01-18T23:04:01.340Z,99800.53
2023-01-18T23:06:28.960Z,99801.94
2023-01-18T23:08:56.391Z,99812.25
2023-01-18T23:11:29.117Z,99814.31
2023-01-18T23:14:16.079Z,99803.19
2023-01-18T23:17:02.062Z,99816.22
2023-01-18T23:19:30.644Z,99815.56
2023-01-18T23:21:57.444Z,99812.88
2023-01-18T23:24:24.175Z,99815.56
2023-01-18T23:26:51.084Z,99817.03
2023-01-18T23:29:18.419Z,99817.63
2023-01-18T23:31:44.957Z,99815.41
2023-01-18T23:34:11.429Z,99821.59
2023-01-18T23:36:37.836Z,99827.94
2023-01-18T23:39:23.097Z,99831.66
2023-01-18T23:42:07.948Z,99826.28
2023-01-18T23:44:52.625Z,99830.59
2023-01-18T23:47:37.860Z,99825.09
2023-01-18T23:50:23.117Z,99830.03
2023-01-18T23:53:07.943Z,99836.19
2023-01-18T23:55:34.322Z,99838.63
2023-01-18T23:58:01.148Z,99837.00
